Portada
METAR-TAF:

METAR-TAF

Aeroports :

Wallops Flight Facility

Wallops Island, Virgínia, Estats Units d'Amèrica

latitud: 37-56-26N, longitud: 075-27-47W, altitud: 12 m

Observació

L'informe es va fer fa 37 minuts, a les 21:54 UTC
Vent 3 kt del Nord/Nord-Oest
Temperatura 0°C
Humitat 51%
Pressió 1030 hPa
Visibilitat: 16.1 km
Cel clar

METAR: KWAL 132154Z 34003KT 10SM CLR 00/M09 A3042 RMK AO2 SLP297 T00001089

Hora: 17:31 (22:31 UTC)


TAF: manca

Observacions i pronòstics meteorològics de més de 4000 aeroports (METAR i TAF).

Les estacions disponibles són els punts grocs i vermells al mapa.

Posi el ratolí al punt desitjat per veure el nom de l'estació.

Feu clic per veure les observacions i els pronòstics meteorològics.

Per canviar el mapa: feu clic els botons verds amb una creu de color negre per apropar; al botó verd amb un guió per allunyar la imatge; o en les fletxes verdes per a mapes adjacents.


METAR-TAF: